createdAt,value
2022-10-11T00:00:14.941Z,13.80
2022-10-11T00:05:17.396Z,11.15
2022-10-11T00:10:19.840Z,11.93
2022-10-11T00:15:22.487Z,10.07
2022-10-11T00:20:24.801Z,10.88
2022-10-11T00:25:26.588Z,13.88
2022-10-11T00:30:28.349Z,11.82
2022-10-11T00:35:30.137Z,9.20
2022-10-11T00:40:31.913Z,10.05
2022-10-11T00:45:33.637Z,11.15
2022-10-11T00:50:36.480Z,10.90
2022-10-11T00:55:49.101Z,11.82
2022-10-11T01:00:51.259Z,8.07
2022-10-11T01:05:53.525Z,12.07
2022-10-11T01:10:56.132Z,9.80
2022-10-11T01:16:24.417Z,11.55
2022-10-11T01:21:28.914Z,7.95
2022-10-11T01:26:45.588Z,9.05
2022-10-11T01:32:27.154Z,15.77
2022-10-11T01:37:46.200Z,14.35
2022-10-11T01:42:49.087Z,9.25
2022-10-11T01:48:11.572Z,10.77
2022-10-11T01:53:19.207Z,9.52
2022-10-11T01:58:51.385Z,13.73
2022-10-11T02:04:04.900Z,7.82
2022-10-11T02:09:16.115Z,12.98
2022-10-11T02:14:22.841Z,12.63
2022-10-11T02:19:29.820Z,13.35
2022-10-11T02:24:35.240Z,8.25
2022-10-11T02:29:39.885Z,13.77
2022-10-11T02:34:48.892Z,11.40
2022-10-11T02:40:17.086Z,15.88
2022-10-11T02:45:34.435Z,15.25
2022-10-11T02:50:40.235Z,17.27
2022-10-11T02:55:42.021Z,23.50
2022-10-11T03:00:44.976Z,21.05
2022-10-11T03:05:46.802Z,20.23
2022-10-11T03:10:48.558Z,27.42
2022-10-11T03:16:02.376Z,24.02
2022-10-11T03:21:09.400Z,22.80
2022-10-11T03:26:11.253Z,17.05
2022-10-11T03:31:13.041Z,14.13
2022-10-11T03:36:14.969Z,17.15
2022-10-11T03:41:16.761Z,18.58
2022-10-11T03:46:20.400Z,14.80
2022-10-11T03:51:22.176Z,13.13
2022-10-11T03:56:24.026Z,19.23
2022-10-11T04:01:25.927Z,15.65
2022-10-11T04:06:27.753Z,16.13
2022-10-11T04:11:29.488Z,17.42
2022-10-11T04:16:31.435Z,15.18
2022-10-11T04:21:33.575Z,18.20
2022-10-11T04:26:35.404Z,19.80
2022-10-11T04:31:37.167Z,16.88
2022-10-11T04:36:39.163Z,14.07
2022-10-11T04:41:40.972Z,14.48
2022-10-11T04:46:42.732Z,12.60
2022-10-11T04:51:44.584Z,15.85
2022-10-11T04:56:46.356Z,14.05
2022-10-11T05:01:48.138Z,16.17
2022-10-11T05:06:50.034Z,17.48
2022-10-11T05:11:51.774Z,15.60
2022-10-11T05:16:53.526Z,12.32
2022-10-11T05:21:55.381Z,9.38
2022-10-11T05:27:02.328Z,12.65
2022-10-11T05:32:05.260Z,11.70
2022-10-11T05:37:07.038Z,11.00
2022-10-11T05:42:10.155Z,11.43
2022-10-11T05:47:12.054Z,15.27
2022-10-11T05:52:13.843Z,17.65
2022-10-11T05:57:15.671Z,16.50
2022-10-11T06:02:17.398Z,16.48
2022-10-11T06:07:19.125Z,12.85
2022-10-11T06:12:21.654Z,11.93
2022-10-11T06:17:24.004Z,11.07
2022-10-11T06:22:26.632Z,6.93
2022-10-11T06:27:28.401Z,6.50
2022-10-11T06:32:30.242Z,8.60
2022-10-11T06:37:32.128Z,9.50
2022-10-11T06:42:33.900Z,10.13
2022-10-11T06:47:35.756Z,6.20
2022-10-11T06:52:37.582Z,6.22
2022-10-11T06:57:39.796Z,3.63
2022-10-11T07:02:41.682Z,3.92
2022-10-11T07:07:44.270Z,7.47
2022-10-11T07:12:46.002Z,7.88
2022-10-11T07:17:47.733Z,6.57
2022-10-11T07:22:49.446Z,5.13
2022-10-11T07:27:51.169Z,5.55
2022-10-11T07:32:52.917Z,6.97
2022-10-11T07:37:55.016Z,9.43
2022-10-11T07:42:58.113Z,6.30
2022-10-11T07:47:59.873Z,4.93
2022-10-11T07:53:01.674Z,4.88
2022-10-11T07:58:03.460Z,4.70
2022-10-11T08:03:09.426Z,6.40
2022-10-11T08:08:11.292Z,9.13
2022-10-11T08:13:13.311Z,4.93
2022-10-11T08:18:15.306Z,9.52
2022-10-11T08:23:18.302Z,7.13
2022-10-11T08:28:20.921Z,4.28
2022-10-11T08:33:25.589Z,4.70
2022-10-11T08:38:27.348Z,7.78
2022-10-11T08:43:44.223Z,6.15
2022-10-11T08:48:49.054Z,5.68
2022-10-11T08:54:07.773Z,7.78
2022-10-11T08:59:12.981Z,7.00
2022-10-11T09:04:16.335Z,6.20
2022-10-11T09:09:24.183Z,7.25
2022-10-11T09:14:52.375Z,5.80
2022-10-11T09:20:41.464Z,4.72
2022-10-11T09:25:55.188Z,4.82
2022-10-11T09:30:58.683Z,6.50
2022-10-11T09:36:01.794Z,5.05
2022-10-11T09:41:18.503Z,6.80
2022-10-11T09:46:24.770Z,4.28
2022-10-11T09:51:28.006Z,5.22
2022-10-11T09:56:31.615Z,6.90
2022-10-11T10:01:33.619Z,7.20
2022-10-11T10:06:35.585Z,6.90
2022-10-11T10:11:37.806Z,6.40
2022-10-11T10:16:39.622Z,7.53
2022-10-11T10:21:53.167Z,5.60
2022-10-11T10:27:14.215Z,5.15
2022-10-11T10:32:34.434Z,7.05
2022-10-11T10:37:49.687Z,5.97
2022-10-11T10:42:51.518Z,6.45
2022-10-11T10:48:02.977Z,7.75
2022-10-11T10:53:29.093Z,6.05
2022-10-11T10:58:36.615Z,5.85
2022-10-11T11:03:53.553Z,6.80
2022-10-11T11:09:05.614Z,7.53
2022-10-11T11:14:32.001Z,6.15
2022-10-11T11:19:48.959Z,5.72
2022-10-11T11:24:56.768Z,7.35
2022-10-11T11:30:08.470Z,5.47
2022-10-11T11:35:32.808Z,6.53
2022-10-11T11:40:40.640Z,6.43
2022-10-11T11:45:55.352Z,9.00
2022-10-11T11:51:06.629Z,8.38
2022-10-11T11:56:41.998Z,5.53
2022-10-11T12:01:56.066Z,6.35
2022-10-11T12:07:18.573Z,5.97
2022-10-11T12:12:34.360Z,4.82
2022-10-11T12:17:56.031Z,8.23
2022-10-11T12:23:03.912Z,7.88
2022-10-11T12:28:36.859Z,5.53
2022-10-11T12:33:38.643Z,5.68
2022-10-11T12:38:42.017Z,7.85
2022-10-11T12:43:49.692Z,5.05
2022-10-11T12:48:58.672Z,7.05
2022-10-11T12:54:37.254Z,6.53
2022-10-11T12:59:44.247Z,8.65
2022-10-11T13:04:46.102Z,5.32
2022-10-11T13:09:49.224Z,5.05
2022-10-11T13:15:04.316Z,6.30
2022-10-11T13:20:15.717Z,7.97
2022-10-11T13:25:30.134Z,6.72
2022-10-11T13:30:34.325Z,8.57
2022-10-11T13:35:38.229Z,4.60
2022-10-11T13:40:40.037Z,5.28
2022-10-11T13:45:42.262Z,3.90
2022-10-11T13:50:52.060Z,6.57
2022-10-11T13:56:00.210Z,4.72
2022-10-11T14:01:05.319Z,4.05
2022-10-11T14:06:07.755Z,4.25
2022-10-11T14:11:12.384Z,4.35
2022-10-11T14:16:20.276Z,3.83
2022-10-11T14:21:47.944Z,4.38
2022-10-11T14:26:52.785Z,3.83
2022-10-11T14:32:08.384Z,4.20
2022-10-11T14:37:13.339Z,4.80
2022-10-11T14:42:15.653Z,4.72
2022-10-11T14:47:18.381Z,5.03
2022-10-11T14:52:20.279Z,5.95
2022-10-11T14:57:22.167Z,3.90
2022-10-11T15:02:23.909Z,4.05
2022-10-11T15:07:25.683Z,2.00
2022-10-11T15:12:27.438Z,2.33
2022-10-11T15:17:29.219Z,3.75
2022-10-11T15:22:30.998Z,3.08
2022-10-11T15:27:32.757Z,4.05
2022-10-11T15:32:34.509Z,3.47
2022-10-11T15:37:37.480Z,3.83
2022-10-11T15:42:39.431Z,3.15
2022-10-11T15:47:41.424Z,3.13
2022-10-11T15:52:43.170Z,3.83
2022-10-11T15:57:44.969Z,5.45
2022-10-11T16:02:46.716Z,4.47
2022-10-11T16:07:48.652Z,4.60
2022-10-11T16:12:50.519Z,3.90
2022-10-11T16:17:52.283Z,3.42
2022-10-11T16:22:54.648Z,2.28
2022-10-11T16:27:56.416Z,1.75
2022-10-11T16:32:58.619Z,3.72
2022-10-11T16:38:01.193Z,3.90
2022-10-11T16:43:07.424Z,3.42
2022-10-11T16:48:09.781Z,5.35
2022-10-11T16:53:12.415Z,5.03
2022-10-11T16:58:14.254Z,4.00
2022-10-11T17:03:16.066Z,4.57
2022-10-11T17:08:17.804Z,5.07
2022-10-11T17:13:19.659Z,7.63
2022-10-11T17:18:21.558Z,4.53
2022-10-11T17:23:23.303Z,22.83
2022-10-11T17:28:26.239Z,8.63
2022-10-11T17:33:28.691Z,8.77
2022-10-11T17:38:30.703Z,5.82
2022-10-11T17:43:32.462Z,3.67
2022-10-11T17:48:36.717Z,5.13
2022-10-11T17:58:41.279Z,3.35
2022-10-11T18:03:43.714Z,13.57
2022-10-11T18:08:45.469Z,4.63
2022-10-11T18:13:52.522Z,3.13
2022-10-11T18:18:54.925Z,4.32
2022-10-11T18:24:00.371Z,7.20
2022-10-11T18:29:02.391Z,8.10
2022-10-11T18:34:05.017Z,12.68
2022-10-11T18:39:08.469Z,7.55
2022-10-11T18:44:14.088Z,7.53
2022-10-11T18:49:15.904Z,14.98
2022-10-11T18:54:20.948Z,6.95
2022-10-11T18:59:23.266Z,24.67
2022-10-11T19:04:25.040Z,5.15
2022-10-11T19:09:28.267Z,7.55
2022-10-11T19:14:30.367Z,4.90
2022-10-11T19:19:35.480Z,3.83
2022-10-11T19:24:37.225Z,9.23
2022-10-11T19:29:39.090Z,14.65
2022-10-11T19:34:40.835Z,5.70
2022-10-11T19:39:42.706Z,7.38
2022-10-11T19:44:44.467Z,12.93
2022-10-11T19:49:46.183Z,6.88
2022-10-11T19:54:47.914Z,7.07
2022-10-11T19:59:49.646Z,7.65
2022-10-11T20:04:52.730Z,6.80
2022-10-11T20:09:54.874Z,5.27
2022-10-11T20:14:56.644Z,6.63
2022-10-11T20:19:58.375Z,7.07
2022-10-11T20:25:00.128Z,9.93
2022-10-11T20:30:01.997Z,8.88
2022-10-11T20:35:03.955Z,8.65
2022-10-11T20:40:06.244Z,9.50
2022-10-11T20:45:08.360Z,9.02
2022-10-11T20:50:10.103Z,14.65
2022-10-11T20:55:11.847Z,7.32
2022-10-11T21:00:14.087Z,6.43
2022-10-11T21:05:15.901Z,9.65
2022-10-11T21:10:17.643Z,8.55
2022-10-11T21:15:19.391Z,11.10
2022-10-11T21:20:21.172Z,9.95
2022-10-11T21:25:22.896Z,7.10
2022-10-11T21:30:24.823Z,5.65
2022-10-11T21:35:27.720Z,7.63
2022-10-11T21:40:29.465Z,6.78
2022-10-11T21:45:31.314Z,6.72
2022-10-11T21:50:33.576Z,7.65
2022-10-11T21:55:35.339Z,7.20
2022-10-11T22:00:37.443Z,9.45
2022-10-11T22:05:46.597Z,9.65
2022-10-11T22:10:56.897Z,6.57
2022-10-11T22:16:03.529Z,6.90
2022-10-11T22:21:15.868Z,11.15
2022-10-11T22:26:23.296Z,5.13
2022-10-11T22:31:25.057Z,7.18
2022-10-11T22:36:28.517Z,5.82
2022-10-11T22:41:30.244Z,8.32
2022-10-11T22:46:32.002Z,8.73
2022-10-11T22:51:33.790Z,6.05
2022-10-11T22:56:35.512Z,6.18
2022-10-11T23:01:37.246Z,9.07
2022-10-11T23:06:39.055Z,6.05
2022-10-11T23:11:40.816Z,6.97
2022-10-11T23:16:42.550Z,5.18
2022-10-11T23:21:44.519Z,5.60
2022-10-11T23:26:46.282Z,6.95
2022-10-11T23:31:48.040Z,7.68
2022-10-11T23:36:49.899Z,8.25
2022-10-11T23:41:51.629Z,8.23
2022-10-11T23:46:53.490Z,7.65
2022-10-11T23:51:55.228Z,6.53
2022-10-11T23:56:57.107Z,4.97
